Gunnar Thorson — OUDU — position and weather

sailwx.info

Track history (hours):
 
Tides and Currents Weather Stations Pressure Air Temp Water Temp Dewpoint Dewpoint Depression Visibility Wind Speed Wind Dir Waves Ship Positions

Oceanographic research ship Gunnar Thorson (Denmark)

Detailed information on ship capabilities available from University of Delaware's Ocean Information Center.

Last reported at 2017-Jun-26 01:45 UTC. Time now 2017-Jun-27 10:23 UTC.
Position N 57°26' E 010°32'.

Length 48 m; draft 4.2 m.

Type: Military. MMSI: 219263000.

Date/timePositionNaut miles runAvg speedWind from/ knotsBaromVisibWave heightAir tempDewpointWater temp
2017-Jun-26 01:45N 57°26' E 010°32'0 0.0
2017-Jun-26 01:30N 57°26' E 010°32'0 0.0
2017-Jun-26 01:00N 57°26' E 010°32'0 0.0
2017-Jun-26 00:30N 57°26' E 010°32'0 0.0
2017-Jun-26 00:00N 57°26' E 010°32'0 0.0
2017-Jun-25 23:27N 57°26' E 010°32'0 0.0
2017-Jun-25 23:00N 57°26' E 010°32'0 0.0
2017-Jun-25 22:24N 57°26' E 010°32'0 0.0
2017-Jun-25 02:32N 57°26' E 010°32'0 0.1
2017-Jun-25 02:29N 57°26' E 010°32'0 0.0
2017-Jun-25 01:53N 57°26' E 010°32'0 0.0
2017-Jun-25 01:29N 57°26' E 010°32'0 0.0
2017-Jun-25 00:56N 57°26' E 010°32'  
2017-Jun-22 07:56N 57°45' E 010°30'511.5
2017-Jun-22 07:30N 57°43' E 010°21'611.1
2017-Jun-22 06:59N 57°41' E 010°12'611.0
2017-Jun-22 06:29N 57°39' E 010°02'123 7.8
2017-Jun-21 14:48N 55°54' E 008°05'311.2
2017-Jun-21 14:30N 55°51' E 008°06'1111.2
2017-Jun-21 13:30N 55°41' E 007°55'611.6
2017-Jun-21 13:00N 55°36' E 007°50'510.0
2017-Jun-21 12:30N 55°32' E 007°54'612.0
2017-Jun-21 12:00N 55°29' E 008°03'611.3
2017-Jun-21 11:30N 55°25' E 008°10'1 2.9
2017-Jun-21 11:00N 55°24' E 008°11'1 1.5
2017-Jun-21 10:30N 55°23' E 008°12'0 0.8
2017-Jun-21 10:01N 55°23' E 008°12'1 1.6
2017-Jun-21 09:31N 55°23' E 008°14'1 1.1
2017-Jun-21 09:00N 55°22' E 008°13'1 1.1
2017-Jun-21 08:30N 55°22' E 008°12'2 3.7
2017-Jun-21 08:00N 55°24' E 008°10'1 1.8
2017-Jun-21 07:30N 55°24' E 008°09'1 2.8
2017-Jun-21 07:00N 55°24' E 008°11'510.4
2017-Jun-21 06:30N 55°27' E 008°19'3 7.0
2017-Jun-21 06:00N 55°28' E 008°25'1 2.5
2017-Jun-21 05:28N 55°28' E 008°27'0 0.0
2017-Jun-21 04:55N 55°28' E 008°27'0 0.0
2017-Jun-21 04:28N 55°28' E 008°27'0 0.0
2017-Jun-21 03:58N 55°28' E 008°27'0 0.0
2017-Jun-21 03:25N 55°28' E 008°27'0 0.0
2017-Jun-21 02:58N 55°28' E 008°27'0 0.0
2017-Jun-21 02:28N 55°28' E 008°27'0 0.0
2017-Jun-21 01:49N 55°28' E 008°27'0 0.0
2017-Jun-21 01:28N 55°28' E 008°27'0 0.0
2017-Jun-21 00:55N 55°28' E 008°27'0 0.0
2017-Jun-21 00:25N 55°28' E 008°27'0 0.0
2017-Jun-20 23:58N 55°28' E 008°27'0 0.0
2017-Jun-20 23:28N 55°28' E 008°27'0 0.0
2017-Jun-20 22:55N 55°28' E 008°27'0 0.0
2017-Jun-20 22:25N 55°28' E 008°27'0 0.0
2017-Jun-20 21:55N 55°28' E 008°27'0 0.0
2017-Jun-20 21:25N 55°28' E 008°27'0 0.0
2017-Jun-20 20:58N 55°28' E 008°27'0 0.0
2017-Jun-20 20:28N 55°28' E 008°27'0 0.0
2017-Jun-20 19:52N 55°28' E 008°27'0 0.0
2017-Jun-20 19:25N 55°28' E 008°27'0 0.0
2017-Jun-20 18:58N 55°28' E 008°27'0 0.0
2017-Jun-20 18:10N 55°28' E 008°27'0 0.0
2017-Jun-20 17:52N 55°28' E 008°27'0 0.0
2017-Jun-20 17:25N 55°28' E 008°27'0 0.0
2017-Jun-20 16:55N 55°28' E 008°27'0 0.0
2017-Jun-20 16:25N 55°28' E 008°27'0 0.0
2017-Jun-20 15:58N 55°28' E 008°27'0 0.0
2017-Jun-20 15:28N 55°28' E 008°27'0 0.0
2017-Jun-20 14:58N 55°28' E 008°27'0 0.0
2017-Jun-20 13:58N 55°28' E 008°27'0 0.0
2017-Jun-20 13:28N 55°28' E 008°27'0 0.0
2017-Jun-20 12:58N 55°28' E 008°27'0 0.0
2017-Jun-20 12:28N 55°28' E 008°27'0 0.0
2017-Jun-20 11:58N 55°28' E 008°27'0 0.0
2017-Jun-20 11:28N 55°28' E 008°27'0 0.0
2017-Jun-20 10:58N 55°28' E 008°27'0 0.0
2017-Jun-20 10:30N 55°28' E 008°27'0 0.0
2017-Jun-20 09:57N 55°28' E 008°27'0 0.1
2017-Jun-20 09:30N 55°28' E 008°27'4 7.4
2017-Jun-20 09:00N 55°28' E 008°20'611.9
2017-Jun-20 08:31N 55°25' E 008°12'611.5
2017-Jun-20 08:00N 55°25' E 008°02'611.6
2017-Jun-20 07:30N 55°25' E 007°51'3 5.9
2017-Jun-20 07:00N 55°27' E 007°56'510.1
2017-Jun-20 06:30N 55°24' E 008°03'3 5.6
2017-Jun-20 05:59N 55°24' E 008°08'3 6.8
2017-Jun-20 05:30N 55°25' E 008°13'510.1
2017-Jun-20 05:00N 55°28' E 008°21'3 6.9
2017-Jun-20 04:30N 55°28' E 008°27'0 0.0
2017-Jun-20 03:59N 55°28' E 008°27'0 0.0
2017-Jun-20 03:29N 55°28' E 008°27'0 0.0
2017-Jun-20 02:50N 55°28' E 008°27'0 0.0
2017-Jun-20 02:23N 55°28' E 008°27'0 0.0
2017-Jun-20 01:59N 55°28' E 008°27'0 0.0
2017-Jun-20 01:23N 55°28' E 008°27'0 0.0
2017-Jun-20 00:59N 55°28' E 008°27'0 0.0
2017-Jun-20 00:20N 55°28' E 008°27'0 0.0
2017-Jun-19 23:56N 55°28' E 008°27'0 0.0
2017-Jun-19 23:26N 55°28' E 008°27'0 0.0
2017-Jun-19 22:59N 55°28' E 008°27'0 0.0
2017-Jun-19 22:23N 55°28' E 008°27'0 0.0
2017-Jun-19 21:53N 55°28' E 008°27'0 0.0
2017-Jun-19 21:23N 55°28' E 008°27'0 0.0
2017-Jun-19 20:44N 55°28' E 008°27'0 0.0
2017-Jun-19 20:23N 55°28' E 008°27'0 0.0
2017-Jun-19 19:56N 55°28' E 008°27'0 0.0
2017-Jun-19 19:26N 55°28' E 008°27'0 0.0
2017-Jun-19 18:59N 55°28' E 008°27'0 0.0
2017-Jun-19 18:26N 55°28' E 008°27'0 0.0
2017-Jun-19 17:59N 55°28' E 008°27'0 0.0
2017-Jun-19 17:26N 55°28' E 008°27'0 0.0
2017-Jun-19 16:50N 55°28' E 008°27'0 0.0
2017-Jun-19 16:29N 55°28' E 008°27'0 0.0
2017-Jun-19 15:59N 55°28' E 008°27'0 0.0
2017-Jun-19 15:29N 55°28' E 008°27'0 0.0
2017-Jun-19 14:59N 55°28' E 008°27'0 0.0
2017-Jun-19 14:26N 55°28' E 008°27'0 0.0
2017-Jun-19 13:29N 55°28' E 008°27'0 0.0
2017-Jun-19 12:56N 55°28' E 008°27'0 0.0
2017-Jun-19 12:26N 55°28' E 008°27'0 0.0
2017-Jun-19 11:59N 55°28' E 008°27'0 0.0
2017-Jun-19 11:28N 55°28' E 008°27'0 0.0
2017-Jun-19 10:58N 55°28' E 008°27'0 0.0
2017-Jun-19 10:28N 55°28' E 008°27'0 0.0
2017-Jun-19 09:58N 55°28' E 008°27'0 0.0
2017-Jun-19 09:28N 55°28' E 008°27'0 0.0
2017-Jun-19 09:00N 55°28' E 008°27'3 5.8
2017-Jun-19 08:30N 55°29' E 008°22'611.5
2017-Jun-19 08:00N 55°26' E 008°14'510.0
2017-Jun-19 07:30N 55°28' E 008°06'510.5
2017-Jun-19 07:00N 55°31' E 007°58'510.6
2017-Jun-19 06:30N 55°33' E 007°50'510.7
2017-Jun-19 06:00N 55°39' E 007°49'611.4
2017-Jun-19 05:30N 55°44' E 007°50'611.7
2017-Jun-19 05:00N 55°50' E 007°52'712.0
2017-Jun-19 04:26N 55°57' E 007°55'611.8
2017-Jun-19 03:57N 56°02' E 007°56'1211.8
2017-Jun-19 02:55N 56°14' E 007°60'711.8
2017-Jun-19 02:20N 56°21' E 008°01'511.5
2017-Jun-19 01:55N 56°26' E 008°03'611.3
2017-Jun-19 01:23N 56°32' E 008°05'410.9
2017-Jun-19 01:00N 56°36' E 008°06'710.6
2017-Jun-19 00:19N 56°43' E 008°10'1710.1
2017-Jun-18 22:35N 56°59' E 008°22'83 5.5
2017-Jun-18 07:29N 57°41' E 010°35'0 0.4
2017-Jun-18 06:59N 57°41' E 010°35'2 3.8
2017-Jun-18 06:30N 57°41' E 010°39'4 7.0
2017-Jun-18 06:00N 57°40' E 010°45'4 7.1
2017-Jun-18 05:29N 57°39' E 010°51'1 1.7
2017-Jun-18 04:59N 57°39' E 010°50'612.1
2017-Jun-18 04:30N 57°41' E 010°40'2 4.6
2017-Jun-18 04:00N 57°42' E 010°35'5 9.6
2017-Jun-18 03:30N 57°37' E 010°40'  
Track history (hours):
 
Tides and Currents Weather Stations Pressure Air Temp Water Temp Dewpoint Dewpoint Depression Visibility Wind Speed Wind Dir Waves Ship Positions

Oceanographic research ship Gunnar Thorson (Denmark)

Detailed information on ship capabilities available from University of Delaware's Ocean Information Center.

Last reported at 2017-Jun-26 01:45 UTC. Time now 2017-Jun-27 10:23 UTC.
Position N 57°26' E 010°32'.

Length 48 m; draft 4.2 m.

Type: Military. MMSI: 219263000.

Date/timePositionNaut miles runAvg speedWind from/ knotsBaromVisibWave heightAir tempDewpointWater temp
2017-Jun-26 01:45N 57°26' E 010°32'0 0.0
2017-Jun-26 01:30N 57°26' E 010°32'0 0.0
2017-Jun-26 01:00N 57°26' E 010°32'0 0.0
2017-Jun-26 00:30N 57°26' E 010°32'0 0.0
2017-Jun-26 00:00N 57°26' E 010°32'0 0.0
2017-Jun-25 23:27N 57°26' E 010°32'0 0.0
2017-Jun-25 23:00N 57°26' E 010°32'0 0.0
2017-Jun-25 22:24N 57°26' E 010°32'0 0.0
2017-Jun-25 02:32N 57°26' E 010°32'0 0.1
2017-Jun-25 02:29N 57°26' E 010°32'0 0.0
2017-Jun-25 01:53N 57°26' E 010°32'0 0.0
2017-Jun-25 01:29N 57°26' E 010°32'0 0.0
2017-Jun-25 00:56N 57°26' E 010°32'  
2017-Jun-22 07:56N 57°45' E 010°30'511.5
2017-Jun-22 07:30N 57°43' E 010°21'611.1
2017-Jun-22 06:59N 57°41' E 010°12'611.0
2017-Jun-22 06:29N 57°39' E 010°02'123 7.8
2017-Jun-21 14:48N 55°54' E 008°05'311.2
2017-Jun-21 14:30N 55°51' E 008°06'1111.2
2017-Jun-21 13:30N 55°41' E 007°55'611.6
2017-Jun-21 13:00N 55°36' E 007°50'510.0
2017-Jun-21 12:30N 55°32' E 007°54'612.0
2017-Jun-21 12:00N 55°29' E 008°03'611.3
2017-Jun-21 11:30N 55°25' E 008°10'1 2.9
2017-Jun-21 11:00N 55°24' E 008°11'1 1.5
2017-Jun-21 10:30N 55°23' E 008°12'0 0.8
2017-Jun-21 10:01N 55°23' E 008°12'1 1.6
2017-Jun-21 09:31N 55°23' E 008°14'1 1.1
2017-Jun-21 09:00N 55°22' E 008°13'1 1.1
2017-Jun-21 08:30N 55°22' E 008°12'2 3.7
2017-Jun-21 08:00N 55°24' E 008°10'1 1.8
2017-Jun-21 07:30N 55°24' E 008°09'1 2.8
2017-Jun-21 07:00N 55°24' E 008°11'510.4
2017-Jun-21 06:30N 55°27' E 008°19'3 7.0
2017-Jun-21 06:00N 55°28' E 008°25'1 2.5
2017-Jun-21 05:28N 55°28' E 008°27'0 0.0
2017-Jun-21 04:55N 55°28' E 008°27'0 0.0
2017-Jun-21 04:28N 55°28' E 008°27'0 0.0
2017-Jun-21 03:58N 55°28' E 008°27'0 0.0
2017-Jun-21 03:25N 55°28' E 008°27'0 0.0
2017-Jun-21 02:58N 55°28' E 008°27'0 0.0
2017-Jun-21 02:28N 55°28' E 008°27'0 0.0
2017-Jun-21 01:49N 55°28' E 008°27'0 0.0
2017-Jun-21 01:28N 55°28' E 008°27'0 0.0
2017-Jun-21 00:55N 55°28' E 008°27'0 0.0
2017-Jun-21 00:25N 55°28' E 008°27'0 0.0
2017-Jun-20 23:58N 55°28' E 008°27'0 0.0
2017-Jun-20 23:28N 55°28' E 008°27'0 0.0
2017-Jun-20 22:55N 55°28' E 008°27'0 0.0
2017-Jun-20 22:25N 55°28' E 008°27'0 0.0
2017-Jun-20 21:55N 55°28' E 008°27'0 0.0
2017-Jun-20 21:25N 55°28' E 008°27'0 0.0
2017-Jun-20 20:58N 55°28' E 008°27'0 0.0
2017-Jun-20 20:28N 55°28' E 008°27'0 0.0
2017-Jun-20 19:52N 55°28' E 008°27'0 0.0
2017-Jun-20 19:25N 55°28' E 008°27'0 0.0
2017-Jun-20 18:58N 55°28' E 008°27'0 0.0
2017-Jun-20 18:10N 55°28' E 008°27'0 0.0
2017-Jun-20 17:52N 55°28' E 008°27'0 0.0
2017-Jun-20 17:25N 55°28' E 008°27'0 0.0
2017-Jun-20 16:55N 55°28' E 008°27'0 0.0
2017-Jun-20 16:25N 55°28' E 008°27'0 0.0
2017-Jun-20 15:58N 55°28' E 008°27'0 0.0
2017-Jun-20 15:28N 55°28' E 008°27'0 0.0
2017-Jun-20 14:58N 55°28' E 008°27'0 0.0
2017-Jun-20 13:58N 55°28' E 008°27'0 0.0
2017-Jun-20 13:28N 55°28' E 008°27'0 0.0
2017-Jun-20 12:58N 55°28' E 008°27'0 0.0
2017-Jun-20 12:28N 55°28' E 008°27'0 0.0
2017-Jun-20 11:58N 55°28' E 008°27'0 0.0
2017-Jun-20 11:28N 55°28' E 008°27'0 0.0
2017-Jun-20 10:58N 55°28' E 008°27'0 0.0
2017-Jun-20 10:30N 55°28' E 008°27'0 0.0
2017-Jun-20 09:57N 55°28' E 008°27'0 0.1
2017-Jun-20 09:30N 55°28' E 008°27'4 7.4
2017-Jun-20 09:00N 55°28' E 008°20'611.9
2017-Jun-20 08:31N 55°25' E 008°12'611.5
2017-Jun-20 08:00N 55°25' E 008°02'611.6
2017-Jun-20 07:30N 55°25' E 007°51'3 5.9
2017-Jun-20 07:00N 55°27' E 007°56'510.1
2017-Jun-20 06:30N 55°24' E 008°03'3 5.6
2017-Jun-20 05:59N 55°24' E 008°08'3 6.8
2017-Jun-20 05:30N 55°25' E 008°13'510.1
2017-Jun-20 05:00N 55°28' E 008°21'3 6.9
2017-Jun-20 04:30N 55°28' E 008°27'0 0.0
2017-Jun-20 03:59N 55°28' E 008°27'0 0.0
2017-Jun-20 03:29N 55°28' E 008°27'0 0.0
2017-Jun-20 02:50N 55°28' E 008°27'0 0.0
2017-Jun-20 02:23N 55°28' E 008°27'0 0.0
2017-Jun-20 01:59N 55°28' E 008°27'0 0.0
2017-Jun-20 01:23N 55°28' E 008°27'0 0.0
2017-Jun-20 00:59N 55°28' E 008°27'0 0.0
2017-Jun-20 00:20N 55°28' E 008°27'0 0.0
2017-Jun-19 23:56N 55°28' E 008°27'0 0.0
2017-Jun-19 23:26N 55°28' E 008°27'0 0.0
2017-Jun-19 22:59N 55°28' E 008°27'0 0.0
2017-Jun-19 22:23N 55°28' E 008°27'0 0.0
2017-Jun-19 21:53N 55°28' E 008°27'0 0.0
2017-Jun-19 21:23N 55°28' E 008°27'0 0.0
2017-Jun-19 20:44N 55°28' E 008°27'0 0.0
2017-Jun-19 20:23N 55°28' E 008°27'0 0.0
2017-Jun-19 19:56N 55°28' E 008°27'0 0.0
2017-Jun-19 19:26N 55°28' E 008°27'0 0.0
2017-Jun-19 18:59N 55°28' E 008°27'0 0.0
2017-Jun-19 18:26N 55°28' E 008°27'0 0.0
2017-Jun-19 17:59N 55°28' E 008°27'0 0.0
2017-Jun-19 17:26N 55°28' E 008°27'0 0.0
2017-Jun-19 16:50N 55°28' E 008°27'0 0.0
2017-Jun-19 16:29N 55°28' E 008°27'0 0.0
2017-Jun-19 15:59N 55°28' E 008°27'0 0.0
2017-Jun-19 15:29N 55°28' E 008°27'0 0.0
2017-Jun-19 14:59N 55°28' E 008°27'0 0.0
2017-Jun-19 14:26N 55°28' E 008°27'0 0.0
2017-Jun-19 13:29N 55°28' E 008°27'0 0.0
2017-Jun-19 12:56N 55°28' E 008°27'0 0.0
2017-Jun-19 12:26N 55°28' E 008°27'0 0.0
2017-Jun-19 11:59N 55°28' E 008°27'0 0.0
2017-Jun-19 11:28N 55°28' E 008°27'0 0.0
2017-Jun-19 10:58N 55°28' E 008°27'0 0.0
2017-Jun-19 10:28N 55°28' E 008°27'0 0.0
2017-Jun-19 09:58N 55°28' E 008°27'0 0.0
2017-Jun-19 09:28N 55°28' E 008°27'0 0.0
2017-Jun-19 09:00N 55°28' E 008°27'3 5.8
2017-Jun-19 08:30N 55°29' E 008°22'611.5
2017-Jun-19 08:00N 55°26' E 008°14'510.0
2017-Jun-19 07:30N 55°28' E 008°06'510.5
2017-Jun-19 07:00N 55°31' E 007°58'510.6
2017-Jun-19 06:30N 55°33' E 007°50'510.7
2017-Jun-19 06:00N 55°39' E 007°49'611.4
2017-Jun-19 05:30N 55°44' E 007°50'611.7
2017-Jun-19 05:00N 55°50' E 007°52'712.0
2017-Jun-19 04:26N 55°57' E 007°55'611.8
2017-Jun-19 03:57N 56°02' E 007°56'1211.8
2017-Jun-19 02:55N 56°14' E 007°60'711.8
2017-Jun-19 02:20N 56°21' E 008°01'511.5
2017-Jun-19 01:55N 56°26' E 008°03'611.3
2017-Jun-19 01:23N 56°32' E 008°05'410.9
2017-Jun-19 01:00N 56°36' E 008°06'710.6
2017-Jun-19 00:19N 56°43' E 008°10'1710.1
2017-Jun-18 22:35N 56°59' E 008°22'83 5.5
2017-Jun-18 07:29N 57°41' E 010°35'0 0.4
2017-Jun-18 06:59N 57°41' E 010°35'2 3.8
2017-Jun-18 06:30N 57°41' E 010°39'4 7.0
2017-Jun-18 06:00N 57°40' E 010°45'4 7.1
2017-Jun-18 05:29N 57°39' E 010°51'1 1.7
2017-Jun-18 04:59N 57°39' E 010°50'612.1
2017-Jun-18 04:30N 57°41' E 010°40'2 4.6
2017-Jun-18 04:00N 57°42' E 010°35'5 9.6
2017-Jun-18 03:30N 57°37' E 010°40'  

Dump ship's entire track history